Perote, Alabama
Current Conditions -  °F | °C
As of 3:53 PM on Friday 31 Oct 2014 (Local Time) from KTOI Reporting Station
Broken Clouds Broken Clouds  
Wind Chill: 71°   Ceiling: 10000
Heat Index: 71°   Visibility: 10mi
Dew Point: 44°   Wind: 8mph
Humidity: 38%   Direction: 290°WNW
Pressure: 29.89"   Gusts: NA
Location:  31.95°N, 85.71°W
Report Text: KTOI 312053Z AUTO 29007KT 10SM FEW065 BKN100 22/07 A2989 RMK AO2 SLP121 T02170067 55010
Loading
Personal Weather Stations






























Interactive Weather Map
Tropical Storm Tracking
New forecast layout! Learn more

10-Day Weather Forecast

Advertisements
Track Severe Weather on mobile